Forside
METAR-TAF:

METAR-TAF

Lufthavne :

Gary, Indiana, USA

Breddekreds: 41-37N, længdekreds: 087-25W, højde: 180 m

Aktuelle vejr

Denne rapport blev lavet for 6 minutter siden, kl. 09:15 UTC
Vind 5 kt fra syd
Temperatur 4°C
Fugtighed 56%
Tryk 1016 hPa
Sigt: 16.1 km
Brudte skyer i en højde af 6500 ft
Overskyet i en højde af 7500 ft

METAR: KGYY 130915Z AUTO 19005KT 10SM BKN065 OVC075 04/M04 A3001 RMK AO2 T00421036

Tid: 03:21 (09:21 UTC)

Vejrudsigter

Denne rapport blev lavet for 21 minutter siden, kl. 09:00 UTC
Foreløbig gælder fra 13 på 09 UTC til 14 på 06 UTC
Vind 5 kt fra sydsydvest
Sigt: 10 km
Brudte skyer i en højde af 6000 ft
Fra 13 på 2300 UTC
Vind kt fra nord
Sigt: 10 km
Spredte skyer i en højde af 4000 ft
Brudte skyer i en højde af 10000 ft

TAF: KGYY 130900Z 1309/1406 21005KT P6SM BKN060 FM132300 00000KT P6SM SCT040 BKN100

Vejrobservationer og prognoser fra mere end 4000 lufthavne (METAR og TAF).

De gule og røde prikker repræsenterer de meteorologiske stationer.

Flyt musen over at se navnet på stationen.

Så klik over at se vejr observationer og prognoser.

At skifte det kort: Klik på de grønne knapper med et sort kors for at zoome ind; på den grønne knap med en bindestreg for at zoome ud; eller på de grønne pile for tilstødende kort.


METAR-TAF: